Terminal Aerodrome Forecast
Issued by NWS

Home | Current Version | Previous Version | Text Only | Print | Product List | Glossary On
Versions: 1 2 3 4 5 6 7 8 9 10 11 12 13 14 15 16 17 18 19 20
000
FTUS41 KGYX 311100 AAA
TAFLEB
TAF AMD
KLEB 311150Z 3112/0112 19008KT P6SM SCT050 BKN100
      TEMPO 3117/3121 2SM TSRA BR BKN025CB
     FM010200 VRB03KT 5SM BR SCT250
     FM010900 VRB03KT 1/2SM FG BKN002=

USA.gov is the U.S. government's official web portal to all federal, state and local government web resources and services.